Airfield :
LOGIN :

Register | Disclaimer

   EN    FR    IT 

 










Legend :    VFR   Marginal VFR   IFR   Intensive IFR   Very Intensive IFR
Visi :
Ceiling :
>= 8 km
>= 3000ft
5 to 8 km
1000 to 3000 ft
1500m to 5 km
500 to 1000 ft
800 to 1500m
200 to 500 ft
< 800m
< 200 ft
Symbols :   Thunderstorms  Fog  Heavy snow  Heavy precipitations  Wind > 20 kt
SIGMETs :     Misc.  Thunderstorms  Icing  Turbulence  Mountain Waves  Volcanic Ashes







- Airport Elevation : 529 ft
- IATA code : CHR
- Download approach charts


LFLX - Chateauroux

CURRENT METAR :
  • 170530Z AUTO 23009KT 9999 FEW014 05/04 Q1012 TEMPO BKN008 BKN012

EXPIRED METARs :
  • 170500Z AUTO 25009KT 9999 SCT012 BKN018 BKN024 06/04 Q1011 NOSIG
  • 170430Z AUTO 27011KT 9999 SCT014 SCT019 07/04 Q1011 NOSIG
  • 170400Z AUTO 26011KT 9999 BKN012 BKN032 BKN048 07/06 Q1011 TEMPO 23018G28KT 4000 -RA BKN008 OVC012 SCT025CB
  • 170330Z AUTO 26013KT 9999 SCT010 SCT022 BKN028 08/06 Q1011 TEMPO 23018G28KT 4000 -RA BKN008 OVC012 SCT025CB
  • 170300Z AUTO 26011KT 9999 BKN009/// OVC013/// ///TCU 08/07 Q1011 BECMG BKN020
  • 170230Z AUTO 25011KT 9999 -RA FEW010/// SCT019/// BKN026/// ///CB 08/07 Q1011 BECMG BKN020

TAF TAF LFLX
Valid from the 17 at 06:00 until the 18 at 12:00 UTC


170500Z 1706/1812 24010KT 9999 BKN030
PROB30
TEMPO 1706/1709 BKN008 BKN012
TEMPO 1718/1720 28015G25KT 4000 SHRA BKN020CB
BECMG 1720/1723 33005KT CAVOK
TEMPO 1800/1809 VRB02KT 3000 BR
PROB40
TEMPO 1802/1809 0800 FG BKN004
BECMG 1809/1811 12005KT
No reported NOTAMs for that airfield.



MET'MAP, your aeronautical weather chart ! - Copyright ORBIFLY December 2007 - Disclaimer

ORBIFLY MET'MAP TEAM :

Programming & Development : Alexandra Zaïnal
Concept & Development : Baudouin d'Aumeries
Co-Development & Prog : Marc-Olivier Méhu
Technical & hardware support : Manuel Goepfert

Contact : metmap@orbifly.com




SOURCES & CREDITS :

   NOAA